Time;durP1;ratioP1;P1;durP2;ratioP2;P2;SDS_P1;SDS_P2;PMS_P1;PMS_P2;Temp;Humidity;BMP_temperature;BMP_pressure;BME280_temperature;BME280_humidity;BME280_pressure;Samples;Min_cycle;Max_cycle;Signal;HPM_P1;HPM_P2
2022/06/05 00:02:01;;;;;;;15.68;10.07;;;11.40;99.90;;;;;;5066093;28;20498;-71
2022/06/05 00:04:47;;;;;;;11.40;9.93;;;11.40;99.90;;;;;;5083052;28;20043;-71
2022/06/05 00:07:34;;;;;;;12.40;9.88;;;11.40;99.90;;;;;;5077993;28;20063;-71
2022/06/05 00:10:09;;;;;;;11.95;8.80;;;11.40;99.90;;;;;;5085620;28;20043;-71
2022/06/05 00:13:09;;;;;;;15.98;11.00;;;11.40;99.90;;;;;;5065805;28;20093;-71
2022/06/05 00:15:34;;;;;;;14.50;10.63;;;11.40;99.90;;;;;;5097507;28;20096;-71
2022/06/05 00:18:01;;;;;;;14.27;10.68;;;11.30;99.90;;;;;;5085737;28;20405;-71
2022/06/05 00:20:27;;;;;;;16.15;11.23;;;11.30;99.90;;;;;;5071599;28;20055;-71
2022/06/05 00:22:54;;;;;;;14.95;10.73;;;11.30;99.90;;;;;;5087401;28;20058;-71
2022/06/05 00:25:20;;;;;;;15.50;11.45;;;11.30;99.90;;;;;;5074579;28;20568;-71
2022/06/05 00:28:00;;;;;;;15.07;10.32;;;11.30;99.90;;;;;;5098868;28;20048;-72
2022/06/05 00:30:38;;;;;;;13.02;10.48;;;11.40;99.90;;;;;;5076475;28;20082;-71
2022/06/05 00:33:14;;;;;;;13.35;10.02;;;11.30;99.90;;;;;;5070326;28;20071;-71
2022/06/05 00:35:52;;;;;;;17.15;11.60;;;11.30;99.90;;;;;;5078903;28;20080;-71
2022/06/05 00:38:38;;;;;;;15.93;11.65;;;11.30;99.90;;;;;;5082811;28;20145;-71
2022/06/05 00:41:35;;;;;;;14.85;12.05;;;11.30;99.90;;;;;;5084842;28;20494;-70
2022/06/05 00:44:03;;;;;;;12.48;11.18;;;11.30;99.90;;;;;;5082386;28;20172;-70
2022/06/05 00:46:29;;;;;;;16.55;11.52;;;11.30;99.90;;;;;;5083940;28;20088;-70
2022/06/05 00:48:55;;;;;;;16.17;11.93;;;11.40;99.90;;;;;;5064355;28;20075;-71
2022/06/05 00:51:21;;;;;;;17.42;12.50;;;11.30;99.90;;;;;;5063421;28;20037;-71
2022/06/05 00:53:48;;;;;;;15.45;11.63;;;11.30;99.90;;;;;;5081271;28;20188;-71
2022/06/05 00:56:15;;;;;;;15.18;11.27;;;11.30;99.90;;;;;;5072079;28;20047;-70
2022/06/05 00:58:41;;;;;;;15.93;11.40;;;11.30;99.90;;;;;;5078655;28;20466;-70
2022/06/05 01:01:07;;;;;;;20.48;12.38;;;11.30;99.90;;;;;;5080344;28;20113;-70
2022/06/05 01:03:33;;;;;;;13.95;11.77;;;11.30;99.90;;;;;;5080171;28;20051;-70
2022/06/05 01:05:59;;;;;;;20.45;11.88;;;11.30;99.90;;;;;;5077049;28;20040;-71
2022/06/05 01:08:26;;;;;;;14.77;12.27;;;11.30;99.90;;;;;;5085637;28;20074;-71
2022/06/05 01:11:12;;;;;;;18.42;13.30;;;11.20;99.90;;;;;;5077907;28;20048;-71
2022/06/05 01:13:56;;;;;;;14.15;12.65;;;11.30;99.90;;;;;;5076056;28;20037;-71
2022/06/05 01:16:39;;;;;;;17.95;13.77;;;11.20;99.90;;;;;;5077147;28;20040;-71
2022/06/05 01:19:42;;;;;;;17.33;13.07;;;11.20;99.90;;;;;;5075651;28;20048;-71
2022/06/05 01:22:48;;;;;;;19.35;12.38;;;11.20;99.90;;;;;;5076142;28;20052;-71
2022/06/05 01:25:34;;;;;;;16.80;13.30;;;11.20;99.90;;;;;;5080196;28;20822;-70
2022/06/05 01:28:22;;;;;;;20.35;13.45;;;11.20;99.90;;;;;;5079586;28;20048;-70
2022/06/05 01:31:04;;;;;;;19.58;13.88;;;11.30;99.90;;;;;;5082861;28;20040;-70
2022/06/05 01:33:31;;;;;;;21.23;14.48;;;11.20;99.90;;;;;;5082713;28;20197;-70
2022/06/05 01:36:09;;;;;;;18.60;13.18;;;11.20;99.90;;;;;;5081541;28;20024;-70
2022/06/05 01:38:45;;;;;;;20.38;15.00;;;11.20;99.90;;;;;;5081135;28;20067;-71
2022/06/05 01:41:40;;;;;;;17.67;14.25;;;11.20;99.90;;;;;;5083055;28;20567;-70
2022/06/05 01:44:25;;;;;;;17.30;13.35;;;11.20;99.90;;;;;;5085679;28;20043;-70
2022/06/05 01:46:53;;;;;;;18.35;13.82;;;11.20;99.90;;;;;;5044167;28;20067;-70
2022/06/05 01:49:26;;;;;;;18.98;14.18;;;11.20;99.90;;;;;;5082806;28;20119;-71
2022/06/05 01:52:22;;;;;;;20.05;13.88;;;11.20;99.90;;;;;;5085690;28;20059;-71
2022/06/05 01:54:58;;;;;;;19.58;13.88;;;11.20;99.90;;;;;;5080991;28;20565;-70
2022/06/05 01:57:26;;;;;;;17.52;14.48;;;11.20;99.90;;;;;;5079148;28;20472;-71
2022/06/05 01:59:58;;;;;;;17.52;14.07;;;11.20;99.90;;;;;;5079355;28;20060;-70
2022/06/05 02:02:32;;;;;;;21.10;13.90;;;11.20;99.90;;;;;;5083180;28;20048;-71
2022/06/05 02:05:12;;;;;;;19.92;14.60;;;11.20;99.90;;;;;;5081406;28;20036;-71
2022/06/05 02:07:45;;;;;;;16.90;12.95;;;11.20;99.90;;;;;;5064505;28;20052;-70
2022/06/05 02:10:38;;;;;;;17.85;14.75;;;11.20;99.90;;;;;;5083688;28;20832;-70
2022/06/05 02:13:04;;;;;;;17.13;14.00;;;11.20;99.90;;;;;;5071744;28;20136;-71
2022/06/05 02:15:31;;;;;;;18.80;13.82;;;11.20;99.90;;;;;;5084505;28;20055;-70
2022/06/05 02:17:58;;;;;;;16.75;14.50;;;11.20;99.90;;;;;;5079709;28;20051;-70
2022/06/05 02:20:24;;;;;;;21.58;14.88;;;11.20;99.90;;;;;;5085499;28;20079;-70
2022/06/05 02:22:51;;;;;;;20.13;15.50;;;11.20;99.90;;;;;;5085639;28;20526;-70
2022/06/05 02:25:20;;;;;;;20.38;16.17;;;11.20;99.90;;;;;;5061199;28;20055;-70
2022/06/05 02:27:46;;;;;;;17.90;14.88;;;11.20;99.90;;;;;;5080655;28;20064;-71
2022/06/05 02:30:15;;;;;;;17.58;14.85;;;11.20;99.90;;;;;;5072813;28;20093;-70
2022/06/05 02:33:02;;;;;;;22.20;15.40;;;11.20;99.90;;;;;;5083185;28;20148;-70
2022/06/05 02:35:50;;;;;;;17.98;14.80;;;11.20;99.90;;;;;;5081472;28;20072;-70
2022/06/05 02:38:45;;;;;;;22.63;16.10;;;11.20;99.90;;;;;;5084997;28;20178;-70
2022/06/05 02:41:16;;;;;;;20.23;16.23;;;11.20;99.90;;;;;;5070697;28;20058;-70
2022/06/05 02:44:29;;;;;;;19.83;16.65;;;11.20;99.90;;;;;;5087077;28;20055;-70
2022/06/05 02:47:16;;;;;;;19.48;16.38;;;11.20;99.90;;;;;;5080245;28;20052;-70
2022/06/05 02:49:46;;;;;;;20.60;15.40;;;11.20;99.90;;;;;;5082995;28;20076;-70
2022/06/05 02:52:12;;;;;;;25.80;17.02;;;11.20;99.90;;;;;;5078408;28;20118;-70
2022/06/05 02:54:41;;;;;;;23.60;16.60;;;11.20;99.90;;;;;;5065559;28;20035;-70
2022/06/05 02:57:07;;;;;;;20.55;16.88;;;11.30;99.90;;;;;;5088405;28;20044;-70
2022/06/05 02:59:33;;;;;;;21.50;16.88;;;11.20;99.90;;;;;;5085652;28;20122;-70
2022/06/05 03:04:43;;;;;;;21.23;15.70;;;11.30;99.90;;;;;;5081086;28;20104;-70
2022/06/05 03:07:09;;;;;;;19.60;16.58;;;11.30;99.90;;;;;;5082437;28;20044;-70
2022/06/05 03:09:35;;;;;;;21.20;16.35;;;11.30;99.90;;;;;;5083734;28;20052;-70
2022/06/05 03:12:01;;;;;;;21.85;15.13;;;11.30;99.90;;;;;;5081841;28;20048;-70
2022/06/05 03:14:27;;;;;;;20.90;16.88;;;11.30;99.90;;;;;;5076922;28;20535;-70
2022/06/05 03:16:53;;;;;;;18.60;16.15;;;11.30;99.90;;;;;;5075713;28;20040;-70
2022/06/05 03:19:19;;;;;;;21.77;15.32;;;11.30;99.90;;;;;;5077691;28;20036;-70
2022/06/05 03:21:45;;;;;;;21.67;15.55;;;11.40;99.90;;;;;;5080466;28;20044;-70
2022/06/05 03:24:10;;;;;;;19.23;16.00;;;11.40;99.90;;;;;;5067900;28;20113;-70
2022/06/05 03:26:36;;;;;;;18.55;14.45;;;11.40;99.90;;;;;;5082585;28;20044;-70
2022/06/05 03:29:03;;;;;;;18.55;15.27;;;11.40;99.90;;;;;;5081224;28;20054;-70
2022/06/05 03:31:29;;;;;;;19.23;15.68;;;11.40;99.90;;;;;;5077318;28;20044;-70
2022/06/05 03:33:55;;;;;;;19.02;14.50;;;11.50;99.90;;;;;;5079354;28;20040;-70
2022/06/05 03:36:21;;;;;;;18.65;14.38;;;11.40;99.90;;;;;;5086589;28;20044;-70
2022/06/05 03:38:47;;;;;;;18.45;15.60;;;11.50;99.90;;;;;;5081300;28;20609;-70
2022/06/05 03:41:16;;;;;;;19.55;16.42;;;11.50;99.90;;;;;;5084055;28;20044;-70
2022/06/05 03:43:43;;;;;;;20.73;16.13;;;11.50;99.90;;;;;;5079762;28;20106;-70
2022/06/05 03:46:11;;;;;;;19.20;15.68;;;11.60;99.90;;;;;;5085482;28;20044;-70
2022/06/05 03:48:38;;;;;;;22.58;15.63;;;11.50;99.90;;;;;;5083146;28;20055;-70
2022/06/05 03:51:14;;;;;;;18.23;15.15;;;11.60;99.90;;;;;;5079685;28;20055;-70
2022/06/05 03:53:40;;;;;;;21.92;16.23;;;11.60;99.90;;;;;;5082463;28;20035;-70
2022/06/05 03:56:16;;;;;;;20.60;16.02;;;11.60;99.90;;;;;;5093295;28;20364;-70
2022/06/05 03:58:42;;;;;;;19.67;15.45;;;11.60;99.90;;;;;;5089248;28;20488;-70
2022/06/05 04:01:12;;;;;;;21.17;16.33;;;11.60;99.90;;;;;;5084054;28;20040;-70
2022/06/05 04:03:38;;;;;;;19.13;16.25;;;11.60;99.90;;;;;;5074346;28;20418;-70
2022/06/05 04:06:09;;;;;;;19.85;15.68;;;11.60;99.90;;;;;;5075562;28;20101;-70
2022/06/05 04:08:35;;;;;;;18.38;14.27;;;11.70;99.90;;;;;;5079290;28;20042;-70
2022/06/05 04:11:09;;;;;;;18.65;15.77;;;11.70;99.90;;;;;;5079000;28;20040;-71
2022/06/05 04:13:34;;;;;;;17.17;15.45;;;11.70;99.90;;;;;;5084086;28;20036;-70
2022/06/05 04:16:00;;;;;;;18.05;16.10;;;11.70;99.90;;;;;;5078838;28;20036;-70
2022/06/05 04:18:26;;;;;;;18.90;16.25;;;11.80;99.90;;;;;;5079360;28;20043;-70
2022/06/05 04:20:52;;;;;;;18.75;16.35;;;11.80;99.90;;;;;;5082367;28;20047;-69
2022/06/05 04:23:17;;;;;;;18.55;15.45;;;11.90;99.90;;;;;;5084274;28;20169;-69
2022/06/05 04:25:44;;;;;;;18.80;15.52;;;11.90;99.90;;;;;;5085336;28;20044;-70
2022/06/05 04:28:11;;;;;;;20.17;15.82;;;12.00;99.90;;;;;;5081056;28;20040;-70
2022/06/05 04:30:40;;;;;;;17.15;14.13;;;12.00;99.90;;;;;;5079632;28;20064;-69
2022/06/05 04:33:07;;;;;;;18.23;16.27;;;12.10;99.90;;;;;;5079053;28;20052;-70
2022/06/05 04:35:34;;;;;;;17.25;15.07;;;12.20;99.90;;;;;;5083450;28;20055;-70
2022/06/05 04:38:00;;;;;;;18.50;15.00;;;12.40;99.90;;;;;;5078656;28;20400;-71
2022/06/05 04:40:26;;;;;;;19.63;14.98;;;12.50;99.90;;;;;;5080149;28;20055;-71
2022/06/05 04:42:53;;;;;;;16.95;15.20;;;12.50;99.90;;;;;;5082436;28;20054;-70
2022/06/05 04:45:19;;;;;;;21.65;15.43;;;12.70;99.90;;;;;;5078035;28;20127;-70
2022/06/05 04:47:46;;;;;;;20.83;14.73;;;12.70;99.90;;;;;;5075940;28;20579;-70
2022/06/05 04:50:12;;;;;;;16.92;14.45;;;12.80;99.90;;;;;;5082348;28;20399;-70
2022/06/05 04:52:38;;;;;;;17.02;13.90;;;12.80;99.90;;;;;;5077227;28;20686;-70
2022/06/05 04:55:04;;;;;;;16.10;13.43;;;12.90;99.90;;;;;;5085855;28;20040;-70
2022/06/05 04:57:29;;;;;;;18.50;14.68;;;12.90;99.90;;;;;;5078578;28;20037;-70
2022/06/05 04:59:55;;;;;;;18.52;14.63;;;13.00;99.90;;;;;;5079028;28;20665;-70
2022/06/05 05:02:21;;;;;;;17.10;14.60;;;13.00;99.90;;;;;;5077407;28;20097;-70
2022/06/05 05:04:47;;;;;;;17.85;14.80;;;13.10;99.90;;;;;;5084609;28;20052;-71
2022/06/05 05:07:17;;;;;;;15.65;14.05;;;13.10;99.90;;;;;;5083271;28;20521;-70
2022/06/05 05:09:42;;;;;;;16.33;14.07;;;13.10;99.90;;;;;;5065176;28;20483;-70
2022/06/05 05:12:10;;;;;;;16.95;13.82;;;13.10;99.90;;;;;;5085714;28;20052;-70
2022/06/05 05:14:39;;;;;;;17.75;15.25;;;13.20;99.90;;;;;;5079012;28;20053;-71
2022/06/05 05:17:05;;;;;;;17.50;14.02;;;13.20;99.90;;;;;;5088520;28;20076;-71
2022/06/05 05:19:31;;;;;;;17.98;14.43;;;13.30;99.90;;;;;;5079644;28;20123;-71
2022/06/05 05:21:57;;;;;;;16.02;13.75;;;13.30;99.90;;;;;;5084030;28;20507;-70
2022/06/05 05:24:23;;;;;;;16.70;14.40;;;13.40;99.90;;;;;;5082763;28;20044;-71
2022/06/05 05:26:49;;;;;;;17.65;15.02;;;13.40;99.90;;;;;;5085793;28;20051;-70
2022/06/05 05:29:14;;;;;;;16.77;13.63;;;13.40;99.90;;;;;;5082145;28;20040;-70
2022/06/05 05:31:42;;;;;;;16.77;14.32;;;13.40;99.90;;;;;;5083138;28;20117;-70
2022/06/05 05:34:09;;;;;;;16.00;14.30;;;13.50;99.90;;;;;;5078533;28;20123;-70
2022/06/05 05:36:35;;;;;;;15.85;13.98;;;13.60;99.90;;;;;;5083874;28;20479;-71
2022/06/05 05:42:04;;;;;;;15.50;13.85;;;13.60;99.90;;;;;;5079114;28;20044;-70
2022/06/05 05:44:48;;;;;;;15.82;13.75;;;13.70;99.90;;;;;;5084308;28;20078;-71
2022/06/05 05:47:19;;;;;;;17.55;14.10;;;13.70;99.90;;;;;;5084653;28;20058;-71
2022/06/05 05:49:45;;;;;;;15.90;14.23;;;13.70;99.90;;;;;;5100269;27;20048;-70
2022/06/05 05:52:12;;;;;;;15.68;14.07;;;13.70;99.90;;;;;;5082108;28;20363;-71
2022/06/05 05:54:39;;;;;;;18.52;14.10;;;13.80;99.90;;;;;;5086857;28;20433;-71
2022/06/05 05:57:05;;;;;;;15.90;14.30;;;13.90;99.90;;;;;;5083995;28;20132;-70
2022/06/05 05:59:31;;;;;;;15.98;14.27;;;13.90;99.90;;;;;;5070364;28;20940;-70
2022/06/05 06:01:57;;;;;;;14.82;13.43;;;14.00;99.90;;;;;;5069807;28;20082;-71
2022/06/05 06:04:23;;;;;;;15.00;13.55;;;14.10;99.90;;;;;;5086073;28;20048;-71
2022/06/05 06:06:49;;;;;;;14.02;12.57;;;14.10;99.90;;;;;;5081205;28;20056;-71
2022/06/05 06:09:19;;;;;;;16.38;14.30;;;14.20;99.90;;;;;;5087130;28;20078;-70
2022/06/05 06:11:46;;;;;;;17.95;15.35;;;14.30;99.90;;;;;;5064230;28;20032;-70
2022/06/05 06:14:12;;;;;;;16.10;13.63;;;14.40;99.90;;;;;;5086714;28;20070;-71
2022/06/05 06:16:38;;;;;;;16.55;14.48;;;14.50;99.90;;;;;;5081893;28;20039;-71
2022/06/05 06:19:04;;;;;;;18.10;14.20;;;14.60;99.90;;;;;;5082335;28;20059;-71
2022/06/05 06:21:31;;;;;;;17.00;13.70;;;14.70;99.90;;;;;;5062048;28;20052;-71
2022/06/05 06:23:57;;;;;;;15.70;14.05;;;14.80;99.90;;;;;;5081785;28;20143;-71
2022/06/05 06:26:22;;;;;;;16.60;14.75;;;15.00;99.90;;;;;;5081227;28;20140;-71
2022/06/05 06:28:48;;;;;;;15.27;13.75;;;15.10;99.90;;;;;;5084248;28;20096;-71
2022/06/05 06:31:16;;;;;;;15.48;13.35;;;15.20;99.90;;;;;;5062643;28;20076;-71
2022/06/05 06:33:43;;;;;;;15.32;13.82;;;15.30;99.90;;;;;;5081484;28;20120;-71
2022/06/05 06:36:11;;;;;;;15.40;13.73;;;15.30;99.90;;;;;;5083372;28;20032;-71
2022/06/05 06:38:37;;;;;;;14.23;12.73;;;15.50;99.90;;;;;;5082164;28;20054;-71
2022/06/05 06:41:09;;;;;;;15.18;13.43;;;15.50;99.90;;;;;;5081548;28;20124;-71
2022/06/05 06:43:35;;;;;;;14.07;12.63;;;15.60;99.90;;;;;;5084758;28;20036;-71
2022/06/05 06:46:02;;;;;;;14.45;13.00;;;15.70;99.90;;;;;;5065491;28;20052;-71
2022/06/05 06:48:28;;;;;;;14.30;12.80;;;15.90;99.90;;;;;;5085451;28;20443;-71
2022/06/05 06:50:56;;;;;;;14.15;12.63;;;16.00;99.90;;;;;;5066024;28;20045;-71
2022/06/05 06:53:22;;;;;;;14.00;12.60;;;16.20;99.90;;;;;;5076458;28;20048;-71
2022/06/05 06:55:48;;;;;;;14.05;12.68;;;16.30;99.90;;;;;;5084673;28;20048;-71
2022/06/05 06:58:14;;;;;;;13.57;12.10;;;16.40;99.90;;;;;;5084090;28;20463;-71
2022/06/05 07:00:40;;;;;;;13.50;11.90;;;16.60;99.90;;;;;;5066730;28;20087;-71
2022/06/05 07:03:06;;;;;;;12.32;11.05;;;16.80;99.90;;;;;;5082068;28;20048;-71
2022/06/05 07:05:32;;;;;;;11.60;10.52;;;17.10;99.90;;;;;;5088258;28;20611;-71
2022/06/05 07:07:58;;;;;;;12.13;10.05;;;17.30;99.90;;;;;;5083293;28;20048;-71
2022/06/05 07:10:24;;;;;;;11.75;10.50;;;17.40;99.90;;;;;;5082491;28;20093;-71
2022/06/05 07:12:50;;;;;;;10.77;9.63;;;17.50;99.90;;;;;;5074838;28;20071;-71
2022/06/05 07:15:16;;;;;;;11.70;10.63;;;17.70;99.90;;;;;;5080431;28;20037;-72
2022/06/05 07:17:42;;;;;;;11.48;10.32;;;17.70;99.90;;;;;;5073570;28;20059;-71
2022/06/05 07:20:08;;;;;;;9.90;8.88;;;17.80;99.90;;;;;;5078116;28;20052;-71
2022/06/05 07:22:34;;;;;;;12.43;9.60;;;17.90;99.90;;;;;;5062639;28;20044;-72
2022/06/05 07:25:00;;;;;;;10.90;9.80;;;18.00;99.90;;;;;;5081451;28;20403;-72
2022/06/05 07:27:27;;;;;;;11.40;9.70;;;18.00;99.90;;;;;;5079206;28;20041;-72
2022/06/05 07:29:53;;;;;;;11.30;9.85;;;18.10;99.90;;;;;;5083982;28;20119;-71
2022/06/05 07:32:20;;;;;;;10.13;9.13;;;18.20;99.90;;;;;;5078037;28;20048;-71
2022/06/05 07:34:46;;;;;;;10.20;9.10;;;18.40;99.90;;;;;;5078684;28;20462;-71
2022/06/05 07:37:13;;;;;;;9.75;8.82;;;18.50;99.90;;;;;;5079705;28;20411;-70
2022/06/05 07:39:40;;;;;;;10.05;9.07;;;18.60;99.90;;;;;;5077604;28;20048;-72
2022/06/05 07:42:06;;;;;;;10.32;8.43;;;18.70;99.90;;;;;;5080905;28;20422;-71
2022/06/05 07:44:32;;;;;;;10.45;9.38;;;18.90;99.90;;;;;;5079413;28;20056;-72
2022/06/05 07:47:02;;;;;;;9.90;8.40;;;19.00;99.90;;;;;;5081373;28;20079;-72
2022/06/05 07:49:27;;;;;;;9.57;8.57;;;19.10;99.90;;;;;;5081717;28;20051;-71
2022/06/05 07:54:38;;;;;;;10.93;8.73;;;19.40;99.90;;;;;;5086008;28;20538;-72
2022/06/05 07:57:12;;;;;;;9.50;8.50;;;19.50;99.90;;;;;;5084930;28;20067;-71
2022/06/05 07:59:41;;;;;;;9.45;8.50;;;19.50;99.90;;;;;;5082423;28;20048;-72
2022/06/05 08:02:12;;;;;;;9.82;7.80;;;19.50;99.90;;;;;;5082176;28;20044;-71
2022/06/05 08:04:39;;;;;;;10.68;8.48;;;19.50;99.90;;;;;;5079458;28;20051;-72
2022/06/05 08:07:06;;;;;;;8.98;7.60;;;19.60;99.90;;;;;;5072850;28;20057;-71
2022/06/05 08:09:34;;;;;;;9.32;8.30;;;19.70;99.90;;;;;;5084059;28;20059;-73
2022/06/05 08:12:00;;;;;;;9.18;7.38;;;19.80;99.90;;;;;;5078214;28;20495;-72
2022/06/05 08:14:26;;;;;;;9.30;7.43;;;19.90;99.90;;;;;;5081532;28;20515;-72
2022/06/05 08:16:52;;;;;;;8.70;7.72;;;20.00;99.90;;;;;;5082455;28;20052;-71
2022/06/05 08:19:21;;;;;;;8.27;7.18;;;20.20;99.90;;;;;;5082101;28;20501;-72
2022/06/05 08:21:48;;;;;;;8.35;6.80;;;20.50;99.90;;;;;;5079267;28;20056;-72
2022/06/05 08:24:14;;;;;;;8.80;8.02;;;20.70;99.90;;;;;;5078848;28;20048;-72
2022/06/05 08:26:40;;;;;;;8.02;7.18;;;20.90;99.40;;;;;;5082359;28;20141;-72
2022/06/05 08:29:06;;;;;;;8.10;6.93;;;20.90;98.40;;;;;;5076548;28;20041;-72
2022/06/05 08:31:33;;;;;;;8.07;7.28;;;20.90;98.20;;;;;;5078291;28;20036;-72
2022/06/05 08:34:01;;;;;;;7.78;6.95;;;20.90;97.00;;;;;;5059225;28;20089;-72
2022/06/05 08:36:27;;;;;;;7.90;6.53;;;20.80;97.30;;;;;;5082694;28;20466;-72
2022/06/05 08:41:50;;;;;;;;;;;20.90;97.80;;;;;;5080680;28;20106;-70
2022/06/05 08:44:31;;;;;;;7.07;6.40;;;20.80;97.40;;;;;;5082671;28;19966;-72
2022/06/05 08:47:07;;;;;;;7.60;6.80;;;20.80;97.20;;;;;;5073796;28;20140;-69
2022/06/05 08:49:39;;;;;;;8.75;6.72;;;20.80;96.70;;;;;;5100276;28;20043;-69
2022/06/05 08:52:20;;;;;;;8.68;6.60;;;20.80;96.10;;;;;;5090674;28;20040;-69
2022/06/05 08:55:11;;;;;;;8.88;6.03;;;20.90;97.10;;;;;;5091491;28;20109;-70
2022/06/05 08:58:08;;;;;;;7.82;6.75;;;21.00;97.40;;;;;;5097821;28;20038;-69
2022/06/05 09:00:57;;;;;;;10.98;9.38;;;21.20;96.80;;;;;;5088785;28;20181;-70
2022/06/05 09:03:36;;;;;;;6.93;6.30;;;21.50;96.50;;;;;;5099232;28;20027;-71
2022/06/05 09:06:12;;;;;;;8.23;6.53;;;21.80;96.60;;;;;;5103275;28;20036;-72
2022/06/05 09:08:41;;;;;;;8.38;6.25;;;22.10;95.60;;;;;;5080008;28;20044;-75
2022/06/05 09:11:21;;;;;;;10.90;9.02;;;22.30;95.20;;;;;;5086821;28;20068;-73
2022/06/05 09:14:12;;;;;;;7.68;6.43;;;22.50;94.90;;;;;;5078060;28;20445;-72
2022/06/05 09:16:48;;;;;;;8.63;7.13;;;22.60;91.90;;;;;;5074452;28;20044;-74
2022/06/05 09:19:23;;;;;;;7.43;5.95;;;22.70;91.00;;;;;;5078715;28;20054;-73
2022/06/05 09:22:16;;;;;;;7.68;6.10;;;22.80;91.40;;;;;;5077903;28;20058;-74
2022/06/05 09:25:03;;;;;;;8.18;6.25;;;23.00;89.50;;;;;;5085969;28;20101;-74
2022/06/05 09:27:49;;;;;;;6.85;5.95;;;22.90;90.70;;;;;;5084493;28;20040;-74
2022/06/05 09:30:22;;;;;;;6.45;5.63;;;23.00;89.60;;;;;;5085204;28;20067;-74
2022/06/05 09:32:48;;;;;;;7.90;6.35;;;23.20;89.80;;;;;;5082438;28;20040;-75
2022/06/05 09:35:17;;;;;;;6.75;6.15;;;23.10;87.20;;;;;;5085394;28;20554;-74
2022/06/05 09:37:52;;;;;;;6.43;5.70;;;23.20;90.00;;;;;;5077750;28;20044;-75
2022/06/05 09:40:24;;;;;;;7.50;6.40;;;23.10;86.30;;;;;;5082378;28;20044;-76
2022/06/05 09:43:32;;;;;;;6.35;5.75;;;23.00;84.20;;;;;;5075018;28;20044;-72
2022/06/05 09:46:15;;;;;;;6.93;6.22;;;22.80;85.70;;;;;;5088058;28;20044;-75
2022/06/05 09:48:41;;;;;;;;;;;22.60;84.80;;;;;;5087984;28;20079;-74
2022/06/05 09:51:10;;;;;;;8.15;6.25;;;22.50;87.40;;;;;;5086900;28;19963;-74
2022/06/05 09:53:59;;;;;;;14.50;13.10;;;22.50;90.00;;;;;;5085716;28;20075;-74
2022/06/05 09:58:24;;;;;;;7.75;6.93;;;22.60;88.10;;;;;;5085540;28;20435;-74
2022/06/05 09:59:33;;;;;;;7.18;5.90;;;22.60;87.50;;;;;;5080199;28;20044;-74
2022/06/05 10:02:01;;;;;;;8.00;6.18;;;22.60;87.90;;;;;;5073365;28;20060;-73
2022/06/05 10:04:32;;;;;;;6.75;6.05;;;22.70;88.80;;;;;;5080056;28;20048;-75
2022/06/05 10:07:25;;;;;;;7.80;5.75;;;22.70;89.20;;;;;;5082406;28;20047;-74
2022/06/05 10:09:51;;;;;;;6.60;5.70;;;22.70;86.40;;;;;;5085184;28;20040;-74
2022/06/05 10:12:25;;;;;;;6.90;5.95;;;22.60;87.80;;;;;;5085368;28;20462;-73
2022/06/05 10:14:54;;;;;;;7.43;5.93;;;22.60;88.70;;;;;;5091440;28;20043;-74
2022/06/05 10:17:26;;;;;;;9.68;8.73;;;22.60;87.80;;;;;;5086732;28;20040;-74
2022/06/05 10:20:13;;;;;;;6.85;6.25;;;22.60;89.10;;;;;;5085125;28;20040;-73
2022/06/05 10:22:39;;;;;;;6.60;5.88;;;22.60;88.40;;;;;;5081762;28;20502;-74
2022/06/05 10:25:30;;;;;;;7.80;6.40;;;22.60;90.30;;;;;;5083414;28;20126;-74
2022/06/05 10:28:05;;;;;;;6.47;5.80;;;22.70;89.50;;;;;;5059858;28;20091;-74
2022/06/05 10:30:35;;;;;;;7.78;6.22;;;22.70;90.20;;;;;;5065304;28;20127;-74
2022/06/05 10:33:38;;;;;;;6.07;5.47;;;22.60;88.00;;;;;;5078785;28;20043;-74
2022/06/05 10:36:34;;;;;;;7.18;5.20;;;22.60;88.20;;;;;;5089656;28;20051;-74
2022/06/05 10:39:16;;;;;;;5.82;5.22;;;22.60;89.40;;;;;;5067361;28;20036;-73
2022/06/05 10:41:46;;;;;;;6.65;5.53;;;22.70;89.90;;;;;;5086159;28;20044;-74
2022/06/05 10:44:21;;;;;;;6.03;5.40;;;22.70;89.30;;;;;;5086835;28;20254;-74
2022/06/05 10:46:54;;;;;;;6.53;5.75;;;22.70;88.80;;;;;;5084281;28;20563;-73
2022/06/05 10:49:46;;;;;;;6.22;5.57;;;22.80;88.20;;;;;;5066474;28;20075;-73
2022/06/05 10:52:27;;;;;;;5.60;5.15;;;22.80;90.10;;;;;;5083597;28;20048;-74
2022/06/05 10:55:17;;;;;;;5.53;4.95;;;22.90;89.40;;;;;;5068157;28;20177;-73
2022/06/05 10:57:52;;;;;;;7.15;5.35;;;23.00;88.20;;;;;;5090376;28;20103;-74
2022/06/05 11:00:24;;;;;;;5.63;5.13;;;23.00;89.80;;;;;;5072298;28;20439;-74
2022/06/05 11:03:20;;;;;;;6.13;5.53;;;23.10;89.10;;;;;;5087153;28;20051;-73
2022/06/05 11:06:14;;;;;;;5.80;5.20;;;23.10;88.00;;;;;;5067255;28;20796;-74
2022/06/05 11:08:48;;;;;;;5.60;4.75;;;23.10;90.60;;;;;;5083391;28;20047;-73
2022/06/05 11:14:42;;;;;;;6.70;5.13;;;23.20;88.10;;;;;;5076453;28;20094;-74
2022/06/05 11:17:31;;;;;;;7.40;5.72;;;23.20;86.50;;;;;;5081034;28;20078;-73
2022/06/05 11:20:06;;;;;;;6.40;4.60;;;23.30;84.90;;;;;;5078438;28;20070;-74
2022/06/05 11:22:34;;;;;;;6.15;5.57;;;23.20;86.30;;;;;;5079623;28;20062;-73
2022/06/05 11:25:25;;;;;;;6.00;5.28;;;23.20;84.10;;;;;;5102531;28;20410;-75
2022/06/05 11:28:07;;;;;;;6.07;5.22;;;23.30;82.10;;;;;;5088161;28;20035;-74
2022/06/05 11:30:56;;;;;;;6.25;5.70;;;23.20;82.90;;;;;;5084585;28;20036;-75
2022/06/05 11:33:28;;;;;;;6.00;5.40;;;23.10;83.30;;;;;;5082477;28;20426;-74
2022/06/05 11:36:28;;;;;;;5.82;5.10;;;23.20;83.80;;;;;;5080633;28;20040;-74
2022/06/05 11:39:18;;;;;;;5.78;5.07;;;23.30;85.50;;;;;;5026572;28;20077;-74
2022/06/05 11:41:52;;;;;;;7.53;5.93;;;23.40;85.00;;;;;;5092179;28;20036;-72
2022/06/05 11:44:38;;;;;;;6.00;5.33;;;23.40;83.20;;;;;;5083130;28;20454;-72
2022/06/05 11:47:10;;;;;;;7.65;5.53;;;23.40;81.80;;;;;;5082687;28;20356;-75
2022/06/05 11:50:04;;;;;;;5.63;5.13;;;23.40;81.90;;;;;;5084997;28;20131;-74
2022/06/05 11:52:55;;;;;;;7.90;5.47;;;23.40;81.90;;;;;;5080391;28;20085;-74
2022/06/05 11:55:53;;;;;;;6.55;5.57;;;23.40;81.50;;;;;;5068601;28;20075;-74
2022/06/05 11:58:40;;;;;;;5.80;4.75;;;23.40;83.60;;;;;;5083263;28;20056;-72
2022/06/05 12:01:13;;;;;;;7.47;5.10;;;23.40;83.30;;;;;;5084285;28;20510;-75
2022/06/05 12:04:23;;;;;;;5.80;5.30;;;23.50;82.40;;;;;;5079305;28;20043;-74
2022/06/05 12:06:56;;;;;;;5.53;5.03;;;23.50;81.40;;;;;;5077344;28;20082;-75
2022/06/05 12:09:44;;;;;;;6.43;5.70;;;23.50;82.50;;;;;;5064942;28;20047;-74
2022/06/05 12:12:33;;;;;;;8.10;5.53;;;23.50;82.50;;;;;;5087704;28;20149;-72
2022/06/05 12:15:23;;;;;;;6.32;4.93;;;23.40;81.20;;;;;;5081981;28;20089;-72
2022/06/05 12:18:03;;;;;;;5.75;5.15;;;23.40;80.50;;;;;;5080958;28;20043;-74
2022/06/05 12:21:05;;;;;;;6.25;5.38;;;23.30;82.00;;;;;;5085119;28;20044;-72
2022/06/05 12:24:14;;;;;;;6.05;5.40;;;23.40;81.90;;;;;;5078372;28;20468;-74
2022/06/05 12:26:54;;;;;;;6.72;6.07;;;23.30;81.90;;;;;;5044794;28;20124;-74
2022/06/05 12:29:40;;;;;;;5.95;5.30;;;23.30;81.60;;;;;;5030673;28;20075;-74
2022/06/05 12:32:28;;;;;;;5.80;5.20;;;23.20;82.30;;;;;;5069099;28;20056;-74
2022/06/05 12:35:13;;;;;;;8.43;5.60;;;23.30;82.60;;;;;;5088147;28;20051;-72
2022/06/05 12:37:47;;;;;;;6.13;5.57;;;23.30;82.10;;;;;;5082162;28;20061;-73
2022/06/05 12:40:21;;;;;;;6.65;5.22;;;23.20;81.70;;;;;;5069132;28;20498;-74
2022/06/05 12:43:00;;;;;;;6.35;5.32;;;23.30;82.40;;;;;;5079605;28;20035;-73
2022/06/05 12:45:30;;;;;;;5.72;5.22;;;23.30;82.30;;;;;;5080779;28;20059;-74
2022/06/05 12:48:21;;;;;;;5.43;4.93;;;23.30;83.60;;;;;;5067717;28;20147;-73
2022/06/05 12:51:17;;;;;;;5.20;4.47;;;23.30;82.90;;;;;;5076707;28;20051;-72
2022/06/05 12:53:57;;;;;;;6.85;5.60;;;23.40;84.10;;;;;;5104034;28;20093;-70
2022/06/05 12:56:55;;;;;;;5.78;5.28;;;23.40;83.90;;;;;;5080002;28;20055;-73
2022/06/05 12:59:40;;;;;;;6.20;5.60;;;23.40;82.80;;;;;;5028965;28;20050;-71
2022/06/05 13:02:10;;;;;;;5.38;4.95;;;23.40;84.40;;;;;;5078503;28;20040;-74
2022/06/05 13:04:36;;;;;;;6.03;5.10;;;23.40;84.30;;;;;;5067464;28;20426;-73
2022/06/05 13:07:22;;;;;;;9.05;5.60;;;23.40;84.00;;;;;;5066869;28;20047;-74
2022/06/05 13:09:52;;;;;;;6.85;5.35;;;23.50;85.40;;;;;;5096106;28;20118;-74
2022/06/05 13:12:40;;;;;;;6.25;5.65;;;23.60;86.20;;;;;;5088127;28;20039;-74
2022/06/05 13:15:26;;;;;;;6.22;5.63;;;23.70;83.40;;;;;;5092136;28;20047;-74
2022/06/05 13:18:06;;;;;;;5.80;4.75;;;23.70;83.20;;;;;;5077483;28;20046;-72
2022/06/05 13:21:02;;;;;;;5.30;4.80;;;23.70;82.50;;;;;;5078582;28;20044;-72
2022/06/05 13:23:40;;;;;;;5.35;4.60;;;23.80;82.40;;;;;;5060739;28;20551;-74
2022/06/05 13:26:17;;;;;;;5.65;4.75;;;23.90;84.10;;;;;;5067646;28;20089;-72